Time;durP1;ratioP1;P1;durP2;ratioP2;P2;SDS_P1;SDS_P2;PMS_P1;PMS_P2;Temp;Humidity;BMP_temperature;BMP_pressure;BME280_temperature;BME280_humidity;BME280_pressure;Samples;Min_cycle;Max_cycle;Signal;HPM_P1;HPM_P2
2022/10/03 00:02:25;;;;;;;8.85;3.70;;;;;;;;;;10560417;28;20044;-76
2022/10/03 00:07:41;;;;;;;9.13;3.95;;;;;;;;;;10553721;28;20046;-77
2022/10/03 00:12:56;;;;;;;8.88;3.85;;;;;;;;;;10562777;28;20044;-76
2022/10/03 00:18:04;;;;;;;11.45;4.28;;;;;;;;;;10572444;28;20749;-76
2022/10/03 00:23:13;;;;;;;10.65;4.32;;;;;;;;;;10574726;27;20077;-76
2022/10/03 00:28:21;;;;;;;14.30;4.30;;;;;;;;;;10575232;27;20060;-75
2022/10/03 00:33:34;;;;;;;11.35;3.63;;;;;;;;;;10578528;27;20514;-75
2022/10/03 00:38:55;;;;;;;16.35;5.07;;;;;;;;;;10569338;27;20047;-75
2022/10/03 00:44:20;;;;;;;14.82;4.63;;;;;;;;;;10563582;28;20386;-75
2022/10/03 00:49:39;;;;;;;13.90;5.10;;;;;;;;;;10560973;28;20035;-77
2022/10/03 00:54:51;;;;;;;13.35;4.95;;;;;;;;;;10567758;28;20421;-75
2022/10/03 01:00:16;;;;;;;16.67;5.82;;;;;;;;;;10566626;27;20119;-76
2022/10/03 01:05:26;;;;;;;17.38;5.45;;;;;;;;;;10573468;27;20177;-74
2022/10/03 01:10:34;;;;;;;15.07;5.25;;;;;;;;;;10562342;28;20104;-76
2022/10/03 01:15:46;;;;;;;16.25;5.28;;;;;;;;;;10571549;27;20039;-77
2022/10/03 01:20:53;;;;;;;16.20;5.93;;;;;;;;;;10556452;28;20047;-76
2022/10/03 01:26:05;;;;;;;16.02;5.30;;;;;;;;;;10575513;27;20036;-76
2022/10/03 01:31:14;;;;;;;20.10;6.65;;;;;;;;;;10570587;27;20066;-76
2022/10/03 01:36:20;;;;;;;14.63;5.28;;;;;;;;;;10575061;27;20485;-75
2022/10/03 01:41:28;;;;;;;21.33;6.65;;;;;;;;;;10566985;27;20035;-76
2022/10/03 01:46:37;;;;;;;17.80;6.50;;;;;;;;;;10544379;28;20040;-75
2022/10/03 01:51:43;;;;;;;22.08;6.22;;;;;;;;;;10573617;27;20172;-76
2022/10/03 01:56:53;;;;;;;24.73;7.00;;;;;;;;;;10549867;28;20050;-75
2022/10/03 02:02:02;;;;;;;30.83;7.78;;;;;;;;;;10569886;27;20039;-75
2022/10/03 02:07:16;;;;;;;23.60;7.05;;;;;;;;;;10578658;27;20225;-75
2022/10/03 02:12:25;;;;;;;25.95;7.88;;;;;;;;;;10570295;27;20702;-77
2022/10/03 02:17:44;;;;;;;20.23;6.50;;;;;;;;;;10561892;27;20066;-76
2022/10/03 02:22:50;;;;;;;13.57;4.45;;;;;;;;;;10558623;27;20023;-76
2022/10/03 02:28:12;;;;;;;16.58;6.28;;;;;;;;;;10575898;27;20051;-75
2022/10/03 02:33:34;;;;;;;17.83;6.07;;;;;;;;;;10575806;27;20077;-75
2022/10/03 02:38:47;;;;;;;19.13;6.63;;;;;;;;;;10569161;27;20043;-75
2022/10/03 02:44:15;;;;;;;16.23;6.03;;;;;;;;;;10569115;28;20046;-76
2022/10/03 02:49:43;;;;;;;21.50;7.30;;;;;;;;;;10563180;27;20040;-76
2022/10/03 02:54:54;;;;;;;16.80;5.80;;;;;;;;;;10553853;28;20053;-76
2022/10/03 03:00:08;;;;;;;22.10;6.22;;;;;;;;;;10584385;27;20127;-75
2022/10/03 03:05:22;;;;;;;19.67;6.78;;;;;;;;;;10567350;28;20419;-78
2022/10/03 03:10:33;;;;;;;23.65;6.82;;;;;;;;;;10558841;28;20042;-76
2022/10/03 03:16:02;;;;;;;23.42;7.40;;;;;;;;;;10564351;27;20055;-76
2022/10/03 03:21:10;;;;;;;30.65;7.45;;;;;;;;;;10567572;28;20046;-75
2022/10/03 03:26:34;;;;;;;19.95;6.32;;;;;;;;;;10583844;27;20396;-74
2022/10/03 03:31:42;;;;;;;23.83;7.25;;;;;;;;;;10569398;28;20096;-75
2022/10/03 03:36:51;;;;;;;31.65;7.35;;;;;;;;;;10613116;27;20019;-75
2022/10/03 03:42:04;;;;;;;23.58;7.53;;;;;;;;;;10599628;28;20035;-75
2022/10/03 03:47:13;;;;;;;27.33;7.30;;;;;;;;;;10578119;28;20115;-76
2022/10/03 03:52:24;;;;;;;16.80;5.88;;;;;;;;;;10574014;27;20038;-75
2022/10/03 03:57:48;;;;;;;29.15;7.00;;;;;;;;;;10567758;28;20039;-75
2022/10/03 04:03:06;;;;;;;28.02;7.40;;;;;;;;;;10561890;28;20122;-75
2022/10/03 04:08:24;;;;;;;21.27;6.82;;;;;;;;;;10560846;28;20039;-75
2022/10/03 04:13:35;;;;;;;21.13;6.43;;;;;;;;;;10558207;28;20100;-75
2022/10/03 04:18:58;;;;;;;23.65;7.32;;;;;;;;;;10552645;28;20059;-75
2022/10/03 04:24:13;;;;;;;26.77;7.53;;;;;;;;;;10561072;28;20044;-74
2022/10/03 04:29:25;;;;;;;27.15;7.75;;;;;;;;;;10566201;28;20123;-75
2022/10/03 04:34:37;;;;;;;34.10;8.32;;;;;;;;;;10564604;28;20381;-75
2022/10/03 04:39:44;;;;;;;26.08;7.55;;;;;;;;;;10564816;28;20412;-74
2022/10/03 04:44:58;;;;;;;9.07;2.03;;;;;;;;;;10564806;28;20040;-74
2022/10/03 04:50:04;;;;;;;24.30;7.50;;;;;;;;;;10558387;28;20655;-75
2022/10/03 04:55:15;;;;;;;23.83;7.55;;;;;;;;;;10563165;28;20123;-76
2022/10/03 05:00:23;;;;;;;12.18;4.18;;;;;;;;;;10562912;28;20036;-75
2022/10/03 05:05:41;;;;;;;24.27;7.75;;;;;;;;;;10565802;27;20062;-76
2022/10/03 05:11:06;;;;;;;25.17;7.35;;;;;;;;;;10572777;28;20050;-76
2022/10/03 05:16:18;;;;;;;22.13;6.75;;;;;;;;;;10574642;27;20036;-77
2022/10/03 05:21:32;;;;;;;17.65;6.53;;;;;;;;;;10559359;27;20264;-75
2022/10/03 05:26:41;;;;;;;26.58;7.55;;;;;;;;;;10564239;27;20070;-74
2022/10/03 05:31:55;;;;;;;19.02;5.70;;;;;;;;;;10542793;28;20545;-75
2022/10/03 05:37:06;;;;;;;17.23;6.35;;;;;;;;;;10560497;28;20054;-76
2022/10/03 05:42:20;;;;;;;14.88;5.40;;;;;;;;;;10555908;28;20032;-75
2022/10/03 05:47:48;;;;;;;15.95;5.68;;;;;;;;;;10570309;27;20048;-75
2022/10/03 05:52:59;;;;;;;17.88;6.22;;;;;;;;;;10563978;27;20131;-75
2022/10/03 05:58:17;;;;;;;21.35;7.32;;;;;;;;;;10569664;28;20044;-76
2022/10/03 06:03:40;;;;;;;23.52;6.93;;;;;;;;;;10558513;27;20407;-77
2022/10/03 06:08:47;;;;;;;15.20;5.80;;;;;;;;;;10567208;28;20046;-76
2022/10/03 06:13:59;;;;;;;17.15;6.78;;;;;;;;;;10571375;27;20166;-77
2022/10/03 06:19:19;;;;;;;16.27;6.25;;;;;;;;;;10563739;27;20043;-76
2022/10/03 06:24:48;;;;;;;17.38;6.18;;;;;;;;;;10569095;28;20036;-77
2022/10/03 06:30:04;;;;;;;11.18;3.95;;;;;;;;;;10569607;27;20118;-76
2022/10/03 06:35:23;;;;;;;17.13;6.85;;;;;;;;;;10563917;27;20040;-75
2022/10/03 06:40:46;;;;;;;15.38;5.18;;;;;;;;;;10569252;27;20038;-75
2022/10/03 06:45:53;;;;;;;15.18;6.43;;;;;;;;;;10560187;27;20044;-76
2022/10/03 06:51:09;;;;;;;17.92;6.47;;;;;;;;;;10564998;27;20031;-75
2022/10/03 06:56:30;;;;;;;13.88;5.47;;;;;;;;;;10568096;28;20047;-76
2022/10/03 07:01:49;;;;;;;14.27;5.88;;;;;;;;;;10564820;28;20031;-76
2022/10/03 07:07:04;;;;;;;13.45;5.78;;;;;;;;;;10560475;28;20115;-77
2022/10/03 07:12:34;;;;;;;7.20;3.22;;;;;;;;;;10560499;28;20179;-76
2022/10/03 07:17:49;;;;;;;8.00;3.78;;;;;;;;;;10554997;28;20058;-76
2022/10/03 07:23:13;;;;;;;13.85;6.00;;;;;;;;;;10563835;28;20062;-76
2022/10/03 07:28:26;;;;;;;5.13;2.78;;;;;;;;;;10527710;28;20075;-75
2022/10/03 07:33:52;;;;;;;12.57;5.72;;;;;;;;;;10568531;28;20075;-76
2022/10/03 07:39:14;;;;;;;18.10;6.68;;;;;;;;;;10540292;28;20465;-76
2022/10/03 07:44:35;;;;;;;16.92;6.90;;;;;;;;;;10567459;28;20031;-75
2022/10/03 07:49:54;;;;;;;10.18;4.38;;;;;;;;;;10566315;27;20031;-75
2022/10/03 07:55:09;;;;;;;17.90;6.78;;;;;;;;;;10557640;28;20167;-75
2022/10/03 08:00:16;;;;;;;14.82;6.45;;;;;;;;;;10556634;28;20971;-75
2022/10/03 08:05:25;;;;;;;14.18;6.38;;;;;;;;;;10546033;28;20050;-75
2022/10/03 08:10:46;;;;;;;18.63;5.80;;;;;;;;;;10559345;28;20145;-75
2022/10/03 08:15:56;;;;;;;15.48;7.57;;;;;;;;;;10539227;28;20040;-76
2022/10/03 08:21:00;;;;;;;17.40;6.63;;;;;;;;;;10558258;28;20484;-75
2022/10/03 08:26:10;;;;;;;17.23;6.60;;;;;;;;;;10565363;28;20044;-75
2022/10/03 08:31:36;;;;;;;16.70;6.35;;;;;;;;;;10538848;28;20039;-77
2022/10/03 08:36:57;;;;;;;14.38;6.53;;;;;;;;;;10567763;28;20052;-76
2022/10/03 08:42:18;;;;;;;11.43;5.78;;;;;;;;;;10570833;27;20039;-75
2022/10/03 08:47:37;;;;;;;14.38;5.30;;;;;;;;;;10566833;27;20055;-75
2022/10/03 08:52:49;;;;;;;14.75;5.53;;;;;;;;;;10565159;28;20043;-76
2022/10/03 08:58:13;;;;;;;9.15;4.93;;;;;;;;;;10581853;27;20035;-76
2022/10/03 09:03:31;;;;;;;15.38;6.55;;;;;;;;;;10550623;28;20047;-77
2022/10/03 09:08:49;;;;;;;16.38;6.18;;;;;;;;;;10573026;28;20119;-75
2022/10/03 09:13:52;;;;;;;;;;;;;;;;;;10572222;27;20119;-75
2022/10/03 09:19:03;;;;;;;11.23;5.15;;;;;;;;;;10572317;27;19951;-76
2022/10/03 09:24:17;;;;;;;9.93;4.50;;;;;;;;;;10569099;28;20042;-75
2022/10/03 09:29:50;;;;;;;10.57;5.43;;;;;;;;;;10550313;27;20048;-76
2022/10/03 09:35:26;;;;;;;12.20;4.72;;;;;;;;;;10487634;27;20082;-76
2022/10/03 09:40:52;;;;;;;8.10;4.47;;;;;;;;;;10391133;28;20276;-76
2022/10/03 09:46:12;;;;;;;6.45;4.10;;;;;;;;;;10525825;27;20134;-76
2022/10/03 09:51:26;;;;;;;9.00;4.22;;;;;;;;;;10565013;28;20039;-75
2022/10/03 09:56:38;;;;;;;10.02;4.45;;;;;;;;;;10570242;28;20035;-75
2022/10/03 10:01:47;;;;;;;9.40;4.20;;;;;;;;;;10571217;28;20484;-74
2022/10/03 10:07:13;;;;;;;9.50;4.13;;;;;;;;;;10572854;28;20068;-74
2022/10/03 10:12:31;;;;;;;10.57;4.95;;;;;;;;;;10568645;28;20039;-75
2022/10/03 10:17:52;;;;;;;10.50;4.05;;;;;;;;;;10569286;28;20059;-76
2022/10/03 10:23:13;;;;;;;11.75;4.13;;;;;;;;;;10549444;28;20039;-76
2022/10/03 10:28:34;;;;;;;8.73;5.15;;;;;;;;;;10570032;28;20036;-76
2022/10/03 10:33:58;;;;;;;6.28;2.85;;;;;;;;;;10567129;27;20400;-77
2022/10/03 10:39:18;;;;;;;6.13;3.70;;;;;;;;;;10576586;28;20038;-75
2022/10/03 10:44:38;;;;;;;7.07;3.80;;;;;;;;;;10571149;27;20122;-76
2022/10/03 10:50:00;;;;;;;7.90;4.10;;;;;;;;;;10563564;28;20036;-76
2022/10/03 10:55:27;;;;;;;6.97;3.60;;;;;;;;;;10567478;27;20040;-77
2022/10/03 11:00:39;;;;;;;6.05;2.85;;;;;;;;;;10565035;28;20130;-77
2022/10/03 11:06:07;;;;;;;7.47;3.53;;;;;;;;;;10571330;27;20070;-77
2022/10/03 11:11:27;;;;;;;7.20;3.50;;;;;;;;;;10560405;28;20044;-76
2022/10/03 11:16:52;;;;;;;6.30;3.53;;;;;;;;;;10566980;28;20059;-76
2022/10/03 11:22:10;;;;;;;4.35;2.83;;;;;;;;;;10561132;27;20032;-76
2022/10/03 11:27:31;;;;;;;7.32;3.88;;;;;;;;;;10566730;27;20031;-76
2022/10/03 11:32:49;;;;;;;6.40;3.47;;;;;;;;;;10548363;28;20420;-77
2022/10/03 11:37:56;;;;;;;7.88;3.63;;;;;;;;;;10561490;27;20473;-77
2022/10/03 11:43:06;;;;;;;5.28;3.20;;;;;;;;;;10547159;28;20058;-77
2022/10/03 11:48:18;;;;;;;6.23;3.30;;;;;;;;;;10556417;28;20035;-77
2022/10/03 11:53:28;;;;;;;5.93;3.42;;;;;;;;;;10559618;28;20373;-77
2022/10/03 11:58:34;;;;;;;6.32;3.10;;;;;;;;;;10548667;28;20050;-76
2022/10/03 12:03:43;;;;;;;4.35;3.20;;;;;;;;;;10548272;28;20471;-77
2022/10/03 12:08:56;;;;;;;5.03;2.90;;;;;;;;;;10562514;28;20063;-76
2022/10/03 12:14:06;;;;;;;4.45;3.13;;;;;;;;;;10566859;28;20038;-76
2022/10/03 12:19:19;;;;;;;6.05;3.10;;;;;;;;;;10566301;28;20060;-76
2022/10/03 12:24:28;;;;;;;6.93;3.13;;;;;;;;;;10572533;27;20036;-76
2022/10/03 12:29:33;;;;;;;6.30;3.55;;;;;;;;;;10572257;28;20048;-75
2022/10/03 12:34:40;;;;;;;7.28;3.25;;;;;;;;;;10573356;27;20056;-75
2022/10/03 12:39:49;;;;;;;6.80;3.10;;;;;;;;;;10564713;28;20063;-76
2022/10/03 12:44:56;;;;;;;4.75;2.70;;;;;;;;;;10568624;27;20035;-76
2022/10/03 12:50:07;;;;;;;8.88;3.60;;;;;;;;;;10557964;27;20097;-76
2022/10/03 12:55:20;;;;;;;7.30;3.35;;;;;;;;;;10570319;27;20063;-77
2022/10/03 13:00:27;;;;;;;7.10;3.42;;;;;;;;;;10569659;28;20063;-77
2022/10/03 13:05:54;;;;;;;4.80;2.90;;;;;;;;;;10566166;28;20039;-77
2022/10/03 13:11:08;;;;;;;5.47;3.10;;;;;;;;;;10571606;27;20120;-77
2022/10/03 13:16:27;;;;;;;6.47;2.83;;;;;;;;;;10568443;28;20036;-77
2022/10/03 13:21:45;;;;;;;6.15;2.63;;;;;;;;;;10568361;27;20047;-77
2022/10/03 13:26:59;;;;;;;7.93;2.90;;;;;;;;;;10565981;27;20505;-77
2022/10/03 13:32:17;;;;;;;9.15;3.20;;;;;;;;;;10549283;27;20480;-76
2022/10/03 13:37:27;;;;;;;6.80;3.40;;;;;;;;;;10567560;28;20043;-77
2022/10/03 13:42:46;;;;;;;6.93;3.30;;;;;;;;;;10569204;27;20476;-77
2022/10/03 13:47:52;;;;;;;4.22;2.80;;;;;;;;;;10567667;27;20122;-77
2022/10/03 13:53:00;;;;;;;4.97;2.50;;;;;;;;;;10550768;27;20477;-78
2022/10/03 13:58:17;;;;;;;8.27;3.10;;;;;;;;;;10567573;28;20519;-77
2022/10/03 14:03:23;;;;;;;7.95;2.85;;;;;;;;;;10545569;28;20119;-77
2022/10/03 14:08:46;;;;;;;5.68;2.58;;;;;;;;;;10572317;27;20035;-77
2022/10/03 14:13:56;;;;;;;3.67;2.45;;;;;;;;;;10567563;27;20408;-76
2022/10/03 14:19:13;;;;;;;4.38;2.35;;;;;;;;;;10566741;28;20193;-77
2022/10/03 14:24:25;;;;;;;4.88;2.50;;;;;;;;;;10566791;27;20166;-77
2022/10/03 14:29:45;;;;;;;6.03;2.10;;;;;;;;;;10572149;27;20950;-77
2022/10/03 14:35:14;;;;;;;7.43;2.60;;;;;;;;;;10505308;28;20051;-76
2022/10/03 14:40:18;;;;;;;5.05;2.03;;;;;;;;;;10557549;27;20578;-76
2022/10/03 14:45:25;;;;;;;7.97;2.92;;;;;;;;;;10563100;27;20074;-76
2022/10/03 14:50:40;;;;;;;10.20;2.67;;;;;;;;;;10563486;27;20047;-76
2022/10/03 14:55:56;;;;;;;5.43;2.17;;;;;;;;;;10575934;27;20070;-75
2022/10/03 15:01:12;;;;;;;5.82;2.53;;;;;;;;;;10566900;27;20062;-76
2022/10/03 15:06:32;;;;;;;10.90;5.25;;;;;;;;;;10553228;28;20036;-75
2022/10/03 15:11:46;;;;;;;5.53;2.15;;;;;;;;;;10556288;27;20044;-75
2022/10/03 15:16:53;;;;;;;8.48;2.10;;;;;;;;;;10581837;27;20069;-75
2022/10/03 15:22:17;;;;;;;4.57;2.10;;;;;;;;;;10552189;27;20665;-75
2022/10/03 15:27:26;;;;;;;4.80;2.22;;;;;;;;;;10550453;28;20507;-74
2022/10/03 15:32:38;;;;;;;6.55;2.30;;;;;;;;;;10554359;28;20043;-76
2022/10/03 15:37:42;;;;;;;5.43;2.40;;;;;;;;;;10565944;28;20061;-75
2022/10/03 15:43:02;;;;;;;6.22;2.60;;;;;;;;;;10558925;28;20036;-75
2022/10/03 15:48:25;;;;;;;3.78;2.05;;;;;;;;;;10558786;28;20476;-75
2022/10/03 15:53:35;;;;;;;4.43;1.80;;;;;;;;;;10566449;27;20441;-75
2022/10/03 15:58:48;;;;;;;4.25;2.05;;;;;;;;;;10547810;28;20047;-75
2022/10/03 16:03:55;;;;;;;5.53;1.98;;;;;;;;;;10562577;28;20506;-76
2022/10/03 16:09:10;;;;;;;4.63;2.53;;;;;;;;;;10568344;28;20388;-75
2022/10/03 16:14:19;;;;;;;5.30;1.80;;;;;;;;;;10559311;28;20361;-75
2022/10/03 16:19:27;;;;;;;4.00;1.70;;;;;;;;;;10556747;28;20087;-76
2022/10/03 16:25:01;;;;;;;8.18;2.30;;;;;;;;;;10558922;28;20104;-74
2022/10/03 16:30:19;;;;;;;3.90;1.80;;;;;;;;;;10560223;28;20505;-76
2022/10/03 16:35:41;;;;;;;9.40;2.42;;;;;;;;;;10558869;28;20058;-76
2022/10/03 16:40:51;;;;;;;7.15;2.25;;;;;;;;;;10567334;28;20465;-76
2022/10/03 16:45:54;;;;;;;6.50;2.65;;;;;;;;;;10570653;28;20027;-77
2022/10/03 16:50:59;;;;;;;8.40;2.40;;;;;;;;;;10570599;28;20047;-77
2022/10/03 16:56:06;;;;;;;5.50;2.00;;;;;;;;;;10560404;28;20073;-75
2022/10/03 17:01:14;;;;;;;6.45;2.50;;;;;;;;;;10566456;27;20039;-75
2022/10/03 17:06:30;;;;;;;8.25;3.03;;;;;;;;;;10559492;28;20490;-76
2022/10/03 17:11:35;;;;;;;5.18;2.45;;;;;;;;;;10564638;27;20086;-76
2022/10/03 17:16:46;;;;;;;8.18;2.10;;;;;;;;;;10564153;28;20044;-75
2022/10/03 17:21:53;;;;;;;6.32;2.72;;;;;;;;;;10568343;27;20055;-75
2022/10/03 17:27:01;;;;;;;5.82;3.00;;;;;;;;;;10548846;28;20127;-75
2022/10/03 17:32:12;;;;;;;10.52;3.53;;;;;;;;;;10564046;28;20569;-76
2022/10/03 17:37:20;;;;;;;10.10;3.72;;;;;;;;;;10565770;27;20469;-75
2022/10/03 17:42:38;;;;;;;7.47;3.47;;;;;;;;;;10566466;27;20505;-75
2022/10/03 17:47:48;;;;;;;9.00;3.20;;;;;;;;;;10565234;28;20515;-75
2022/10/03 17:52:52;;;;;;;7.22;3.50;;;;;;;;;;10551866;27;20028;-75
2022/10/03 17:58:04;;;;;;;12.40;3.47;;;;;;;;;;10568368;28;20047;-77
2022/10/03 18:03:08;;;;;;;10.05;3.65;;;;;;;;;;10565897;27;20488;-76
2022/10/03 18:08:14;;;;;;;6.53;3.38;;;;;;;;;;10576740;27;20484;-76
2022/10/03 18:13:21;;;;;;;11.07;3.20;;;;;;;;;;10566216;27;20118;-76
2022/10/03 18:18:44;;;;;;;9.88;3.90;;;;;;;;;;10562397;27;20130;-74
2022/10/03 18:23:55;;;;;;;10.82;4.00;;;;;;;;;;10561366;27;20454;-75
2022/10/03 18:29:05;;;;;;;9.10;3.90;;;;;;;;;;10568193;28;20055;-76
2022/10/03 18:34:13;;;;;;;26.95;11.75;;;;;;;;;;10561040;27;20050;-75
2022/10/03 18:39:17;;;;;;;13.30;4.22;;;;;;;;;;10558733;27;20516;-76
2022/10/03 18:44:23;;;;;;;9.90;3.72;;;;;;;;;;10554588;27;20396;-75
2022/10/03 18:49:28;;;;;;;10.38;3.97;;;;;;;;;;10548618;27;20533;-77
2022/10/03 18:54:45;;;;;;;12.07;3.92;;;;;;;;;;10563426;27;20081;-76
2022/10/03 18:59:52;;;;;;;7.47;3.63;;;;;;;;;;10540710;28;20036;-76
2022/10/03 19:04:56;;;;;;;13.65;4.20;;;;;;;;;;10556110;28;20040;-75
2022/10/03 19:10:15;;;;;;;9.40;4.03;;;;;;;;;;10556079;28;20046;-75
2022/10/03 19:15:25;;;;;;;12.05;4.10;;;;;;;;;;10534416;28;20459;-76
2022/10/03 19:20:32;;;;;;;13.98;4.38;;;;;;;;;;10546986;27;20063;-75
2022/10/03 19:25:37;;;;;;;9.63;4.00;;;;;;;;;;10562775;27;20088;-75
2022/10/03 19:30:42;;;;;;;14.05;5.00;;;;;;;;;;10557305;27;20118;-75
2022/10/03 19:35:47;;;;;;;11.18;4.10;;;;;;;;;;10556249;28;20408;-75
2022/10/03 19:40:54;;;;;;;11.48;4.35;;;;;;;;;;10554108;27;20039;-77
2022/10/03 19:46:02;;;;;;;12.45;4.60;;;;;;;;;;10568864;27;20567;-77
2022/10/03 19:51:10;;;;;;;13.80;4.85;;;;;;;;;;10559957;27;20043;-77
2022/10/03 19:56:21;;;;;;;17.00;5.07;;;;;;;;;;10563206;28;20473;-75
2022/10/03 20:01:25;;;;;;;14.52;5.00;;;;;;;;;;10570948;27;20043;-75
2022/10/03 20:06:32;;;;;;;11.95;4.95;;;;;;;;;;10552542;28;20043;-75
2022/10/03 20:11:40;;;;;;;11.05;4.40;;;;;;;;;;10553918;28;20051;-76
2022/10/03 20:16:47;;;;;;;9.88;4.35;;;;;;;;;;10548569;28;20093;-76
2022/10/03 20:21:55;;;;;;;34.10;14.05;;;;;;;;;;10550331;28;20046;-72
2022/10/03 20:27:05;;;;;;;25.85;11.82;;;;;;;;;;10549992;28;20040;-72
2022/10/03 20:32:15;;;;;;;15.65;6.40;;;;;;;;;;10564846;28;20066;-75
2022/10/03 20:37:23;;;;;;;11.48;5.20;;;;;;;;;;10567103;28;20442;-76
2022/10/03 20:42:29;;;;;;;13.07;5.72;;;;;;;;;;10573798;28;20113;-76
2022/10/03 20:47:51;;;;;;;22.27;9.43;;;;;;;;;;10569783;27;20081;-75
2022/10/03 20:52:57;;;;;;;17.35;6.20;;;;;;;;;;10558210;27;20039;-75
2022/10/03 20:58:05;;;;;;;14.88;6.35;;;;;;;;;;10574988;28;20059;-76
2022/10/03 21:03:13;;;;;;;15.95;6.10;;;;;;;;;;10577376;27;20046;-76
2022/10/03 21:08:19;;;;;;;15.05;6.32;;;;;;;;;;10564545;27;20186;-75
2022/10/03 21:13:23;;;;;;;16.50;7.28;;;;;;;;;;10571733;27;20559;-75
2022/10/03 21:18:27;;;;;;;14.50;5.97;;;;;;;;;;10570269;28;20035;-76
2022/10/03 21:23:30;;;;;;;;;;;;;;;;;;10571372;27;20408;-75
2022/10/03 21:28:35;;;;;;;16.13;7.07;;;;;;;;;;10555685;27;19973;-76
2022/10/03 21:33:39;;;;;;;15.30;6.13;;;;;;;;;;10566963;27;20076;-76
2022/10/03 21:38:43;;;;;;;15.35;6.70;;;;;;;;;;10571699;28;20035;-76
2022/10/03 21:43:50;;;;;;;18.55;7.50;;;;;;;;;;10553491;28;20430;-75
2022/10/03 21:48:59;;;;;;;15.85;6.75;;;;;;;;;;10570648;27;20036;-75
2022/10/03 21:54:14;;;;;;;18.92;8.00;;;;;;;;;;10559069;28;20073;-75
2022/10/03 21:59:28;;;;;;;18.08;8.27;;;;;;;;;;10556399;28;20114;-74
2022/10/03 22:04:35;;;;;;;20.90;8.52;;;;;;;;;;10555551;28;20206;-75
2022/10/03 22:09:43;;;;;;;19.85;7.10;;;;;;;;;;10570596;27;20261;-76
2022/10/03 22:14:51;;;;;;;19.92;7.10;;;;;;;;;;10561275;27;20407;-75
2022/10/03 22:20:08;;;;;;;17.77;7.35;;;;;;;;;;10563842;28;20126;-75
2022/10/03 22:25:14;;;;;;;;;;;;;;;;;;10567272;27;20035;-75
2022/10/03 22:30:30;;;;;;;16.83;6.80;;;;;;;;;;10569039;27;20015;-75
2022/10/03 22:35:40;;;;;;;18.20;7.35;;;;;;;;;;10562463;27;20048;-75
2022/10/03 22:40:43;;;;;;;15.70;7.32;;;;;;;;;;10565249;27;20534;-75
2022/10/03 22:45:49;;;;;;;14.23;5.67;;;;;;;;;;10568042;27;20069;-76
2022/10/03 22:50:53;;;;;;;15.40;6.78;;;;;;;;;;10567544;27;20305;-75
2022/10/03 22:55:57;;;;;;;13.35;6.10;;;;;;;;;;10571470;27;20053;-76
2022/10/03 23:01:02;;;;;;;14.75;7.00;;;;;;;;;;10578940;27;20035;-75
2022/10/03 23:06:34;;;;;;;17.92;8.38;;;;;;;;;;10558874;28;20108;-75
2022/10/03 23:11:38;;;;;;;17.40;7.65;;;;;;;;;;10566218;27;20598;-75
2022/10/03 23:16:41;;;;;;;;;;;;;;;;;;10565125;27;20039;-75
2022/10/03 23:21:46;;;;;;;15.90;7.63;;;;;;;;;;10559402;27;19927;-77
2022/10/03 23:27:08;;;;;;;20.95;7.80;;;;;;;;;;10564351;28;20038;-76
2022/10/03 23:32:11;;;;;;;23.52;7.25;;;;;;;;;;10569721;27;20047;-74
2022/10/03 23:37:23;;;;;;;18.02;7.00;;;;;;;;;;10562095;27;20396;-75
2022/10/03 23:42:37;;;;;;;19.63;7.82;;;;;;;;;;10560650;27;20374;-75
2022/10/03 23:47:42;;;;;;;15.88;7.32;;;;;;;;;;10571453;28;20481;-77
2022/10/03 23:52:49;;;;;;;21.30;8.32;;;;;;;;;;10571847;27;20504;-76
2022/10/03 23:57:53;;;;;;;21.42;8.55;;;;;;;;;;10567209;28;20039;-75
